Time;durP1;ratioP1;P1;durP2;ratioP2;P2;SDS_P1;SDS_P2;PMS_P1;PMS_P2;Temp;Humidity;BMP_temperature;BMP_pressure;BME280_temperature;BME280_humidity;BME280_pressure;Samples;Min_cycle;Max_cycle;Signal;HPM_P1;HPM_P2
2021/11/22 00:00:16;;;;;;;16.93;2.67;;;19.60;99.90;;;;;;5072669;28;20190;-68
2021/11/22 00:02:45;;;;;;;21.33;3.30;;;19.50;99.90;;;;;;5073670;28;20190;-70
2021/11/22 00:05:13;;;;;;;17.87;2.70;;;19.50;99.90;;;;;;5072451;28;20277;-70
2021/11/22 00:07:40;;;;;;;17.77;2.83;;;19.40;99.90;;;;;;5073736;28;20626;-70
2021/11/22 00:10:08;;;;;;;13.57;2.23;;;19.40;99.90;;;;;;5073081;28;20194;-69
2021/11/22 00:12:37;;;;;;;18.40;2.63;;;19.70;99.90;;;;;;5073719;28;20240;-68
2021/11/22 00:15:10;;;;;;;20.87;2.80;;;19.80;99.90;;;;;;5073393;28;20231;-69
2021/11/22 00:17:39;;;;;;;11.67;1.90;;;19.90;99.90;;;;;;5073618;28;20693;-69
2021/11/22 00:20:13;;;;;;;12.80;2.30;;;19.60;99.90;;;;;;5073425;28;20266;-71
2021/11/22 00:22:43;;;;;;;13.87;2.67;;;19.60;99.90;;;;;;5073700;28;20224;-70
2021/11/22 00:25:12;;;;;;;13.33;2.20;;;19.60;99.90;;;;;;5073091;28;20202;-73
2021/11/22 00:27:40;;;;;;;13.23;2.17;;;19.60;99.90;;;;;;5073286;28;20212;-70
2021/11/22 00:30:07;;;;;;;15.43;2.83;;;20.00;99.90;;;;;;5073160;28;20206;-74
2021/11/22 00:32:36;;;;;;;13.40;2.70;;;20.10;99.90;;;;;;5073452;28;20186;-69
2021/11/22 00:35:06;;;;;;;10.57;2.20;;;20.00;99.90;;;;;;5071820;28;20599;-69
2021/11/22 00:37:36;;;;;;;16.70;2.10;;;19.90;99.90;;;;;;5067836;28;20282;-69
2021/11/22 00:40:06;;;;;;;15.10;2.57;;;19.80;99.90;;;;;;5072556;28;20536;-72
2021/11/22 00:42:34;;;;;;;9.63;1.93;;;19.90;99.90;;;;;;5069749;28;20279;-72
2021/11/22 00:45:01;;;;;;;10.87;2.33;;;19.90;99.90;;;;;;5072506;28;20184;-70
2021/11/22 00:47:28;;;;;;;14.67;3.07;;;20.30;99.90;;;;;;5073116;28;20590;-68
2021/11/22 00:49:56;;;;;;;14.67;1.93;;;20.20;99.90;;;;;;5072588;28;20652;-67
2021/11/22 00:52:23;;;;;;;15.43;2.67;;;20.10;99.90;;;;;;5072747;28;20198;-70
2021/11/22 00:54:50;;;;;;;17.47;2.97;;;19.90;99.90;;;;;;5069181;28;20190;-69
2021/11/22 00:57:18;;;;;;;12.20;2.30;;;19.90;99.90;;;;;;5071332;28;20218;-68
2021/11/22 00:59:45;;;;;;;19.77;3.43;;;19.80;99.90;;;;;;5072170;28;20289;-72
2021/11/22 01:02:12;;;;;;;18.50;2.43;;;19.80;99.90;;;;;;5072158;28;20224;-68
2021/11/22 01:04:40;;;;;;;12.67;2.13;;;19.90;99.90;;;;;;5071757;28;20186;-75
2021/11/22 01:07:07;;;;;;;18.93;2.97;;;20.00;99.90;;;;;;5071358;28;20185;-72
2021/11/22 01:09:34;;;;;;;21.10;2.87;;;19.90;99.90;;;;;;5072269;28;20191;-73
2021/11/22 01:12:02;;;;;;;18.27;2.40;;;19.70;99.90;;;;;;5071925;28;20183;-70
2021/11/22 01:14:29;;;;;;;14.60;2.97;;;19.70;99.90;;;;;;5072454;28;20704;-67
2021/11/22 01:16:57;;;;;;;14.30;2.57;;;19.70;99.90;;;;;;5072027;28;20670;-73
2021/11/22 01:19:24;;;;;;;20.73;2.83;;;20.00;99.90;;;;;;5066235;28;20214;-74
2021/11/22 01:21:52;;;;;;;16.47;3.07;;;20.00;99.90;;;;;;5071536;28;20548;-70
2021/11/22 01:24:19;;;;;;;10.80;2.80;;;20.00;99.90;;;;;;5071906;28;20218;-71
2021/11/22 01:26:46;;;;;;;17.77;2.50;;;19.80;99.90;;;;;;5070981;28;20183;-68
2021/11/22 01:29:14;;;;;;;22.80;3.17;;;19.60;99.90;;;;;;5072243;28;20183;-70
2021/11/22 01:31:41;;;;;;;16.73;3.20;;;19.60;99.90;;;;;;5071929;28;20593;-70
2021/11/22 01:34:08;;;;;;;16.10;2.70;;;19.90;99.90;;;;;;5071837;28;20206;-69
2021/11/22 01:36:36;;;;;;;10.10;1.97;;;20.20;99.90;;;;;;5071582;28;20684;-71
2021/11/22 01:39:04;;;;;;;11.23;1.63;;;20.50;99.90;;;;;;5071872;28;20175;-71
2021/11/22 01:41:31;;;;;;;9.23;1.93;;;20.60;99.90;;;;;;5066657;28;20645;-69
2021/11/22 01:43:59;;;;;;;6.30;1.73;;;20.80;99.90;;;;;;5068826;28;20183;-72
2021/11/22 01:46:27;;;;;;;13.27;2.10;;;21.40;99.90;;;;;;5070421;28;20325;-72
2021/11/22 01:48:56;;;;;;;7.60;2.33;;;21.40;99.90;;;;;;5068177;28;20195;-72
2021/11/22 01:51:23;;;;;;;11.30;2.13;;;21.50;99.90;;;;;;5067656;28;20199;-70
2021/11/22 01:53:51;;;;;;;13.33;2.53;;;21.60;99.90;;;;;;5067753;28;20527;-71
2021/11/22 01:56:21;;;;;;;15.97;2.60;;;21.40;99.90;;;;;;5070654;28;20258;-69
2021/11/22 01:58:50;;;;;;;11.17;2.30;;;21.20;99.90;;;;;;5070805;28;20187;-72
2021/11/22 02:01:18;;;;;;;11.53;2.40;;;21.10;99.90;;;;;;5069352;28;20206;-72
2021/11/22 02:03:46;;;;;;;9.70;2.57;;;21.10;99.90;;;;;;5069992;28;20206;-74
2021/11/22 02:06:13;;;;;;;11.73;2.43;;;21.00;99.90;;;;;;5069051;28;20520;-72
2021/11/22 02:08:40;;;;;;;15.13;2.10;;;20.60;99.90;;;;;;5069989;28;20197;-73
2021/11/22 02:11:10;;;;;;;13.93;2.03;;;20.30;99.90;;;;;;5069804;28;20633;-73
2021/11/22 02:13:37;;;;;;;7.93;2.00;;;20.10;99.90;;;;;;5070690;28;20247;-71
2021/11/22 02:16:05;;;;;;;7.30;1.80;;;20.10;99.90;;;;;;5068952;28;20791;-71
2021/11/22 02:18:33;;;;;;;6.50;1.40;;;19.80;99.90;;;;;;5064561;28;20183;-72
2021/11/22 02:21:00;;;;;;;9.50;1.50;;;19.60;99.90;;;;;;5070375;28;20245;-71
2021/11/22 02:23:28;;;;;;;7.13;1.33;;;19.30;99.90;;;;;;5068856;28;20195;-72
2021/11/22 02:25:55;;;;;;;9.00;1.73;;;19.10;99.90;;;;;;5067753;28;20246;-70
2021/11/22 02:28:22;;;;;;;11.17;1.90;;;19.10;99.90;;;;;;5069398;28;20207;-72
2021/11/22 02:30:51;;;;;;;10.57;1.60;;;19.20;99.90;;;;;;5068780;28;20206;-71
2021/11/22 02:33:24;;;;;;;5.90;1.40;;;19.30;99.90;;;;;;5069390;28;20278;-73
2021/11/22 02:35:57;;;;;;;6.70;1.50;;;19.50;99.90;;;;;;5068223;28;20263;-73
2021/11/22 02:38:33;;;;;;;7.23;1.47;;;19.90;99.90;;;;;;5071216;28;20190;-72
2021/11/22 02:41:04;;;;;;;6.23;1.43;;;20.60;99.90;;;;;;5067282;28;20201;-71
2021/11/22 02:43:33;;;;;;;10.17;1.37;;;21.10;99.90;;;;;;5070122;28;20187;-68
2021/11/22 02:46:01;;;;;;;6.20;1.37;;;21.50;99.90;;;;;;5069585;28;20189;-71
2021/11/22 02:48:28;;;;;;;10.67;2.23;;;21.30;99.90;;;;;;5067564;28;20599;-70
2021/11/22 02:50:56;;;;;;;17.30;1.77;;;21.40;99.90;;;;;;5067378;28;20266;-68
2021/11/22 02:53:28;;;;;;;12.13;1.70;;;21.50;99.90;;;;;;5068863;28;20215;-69
2021/11/22 02:56:03;;;;;;;12.43;2.00;;;21.40;99.90;;;;;;5069861;28;20218;-68
2021/11/22 02:58:31;;;;;;;11.83;2.17;;;21.40;99.90;;;;;;5068758;28;20215;-68
2021/11/22 03:00:59;;;;;;;17.07;2.10;;;21.40;99.90;;;;;;5069414;28;20198;-69
2021/11/22 03:03:29;;;;;;;10.60;2.33;;;21.10;99.90;;;;;;5069967;28;20183;-69
2021/11/22 03:06:12;;;;;;;13.60;2.10;;;21.00;99.90;;;;;;5070613;28;20203;-68
2021/11/22 03:08:42;;;;;;;18.50;2.33;;;20.90;99.90;;;;;;5069558;28;20709;-69
2021/11/22 03:11:10;;;;;;;14.80;2.17;;;20.90;99.90;;;;;;5069666;28;20190;-70
2021/11/22 03:13:39;;;;;;;13.97;2.67;;;21.10;99.90;;;;;;5069781;28;20265;-71
2021/11/22 03:16:07;;;;;;;15.37;2.20;;;21.70;99.90;;;;;;5070477;28;20215;-68
2021/11/22 03:18:35;;;;;;;13.23;1.83;;;22.20;99.90;;;;;;5069439;28;20186;-68
2021/11/22 03:21:02;;;;;;;9.97;1.90;;;22.80;99.90;;;;;;5069376;28;20188;-70
2021/11/22 03:23:32;;;;;;;10.30;1.77;;;23.30;99.90;;;;;;5068103;28;20183;-68
2021/11/22 03:25:59;;;;;;;10.63;2.23;;;23.80;99.90;;;;;;5069430;28;20187;-70
2021/11/22 03:28:28;;;;;;;11.63;2.83;;;24.10;99.90;;;;;;5070772;28;20270;-71
2021/11/22 03:30:55;;;;;;;24.17;2.30;;;24.40;99.90;;;;;;5072320;28;20194;-71
2021/11/22 03:33:23;;;;;;;13.40;2.23;;;24.50;99.90;;;;;;5072856;28;20554;-69
2021/11/22 03:35:55;;;;;;;14.50;2.20;;;24.60;99.90;;;;;;5073009;28;20207;-72
2021/11/22 03:38:25;;;;;;;17.50;2.20;;;24.60;99.90;;;;;;5071342;28;20202;-70
2021/11/22 03:40:55;;;;;;;12.07;2.13;;;24.80;99.90;;;;;;5073273;28;20175;-66
2021/11/22 03:43:45;;;;;;;11.17;2.30;;;24.00;99.90;;;;;;5070708;28;20221;-70
2021/11/22 03:46:13;;;;;;;10.63;1.87;;;24.10;99.90;;;;;;5068128;28;20179;-72
2021/11/22 03:48:41;;;;;;;1010.43;794.93;;;23.80;99.90;;;;;;5071903;28;20178;-70
2021/11/22 03:51:08;;;;;;;8.47;1.80;;;24.00;99.90;;;;;;5070564;28;20545;-70
2021/11/22 03:53:36;;;;;;;10.70;2.50;;;23.80;99.90;;;;;;5072596;28;20195;-72
2021/11/22 03:56:04;;;;;;;12.93;2.73;;;23.80;99.90;;;;;;5071963;28;20206;-69
2021/11/22 03:58:31;;;;;;;10.13;2.10;;;23.70;99.90;;;;;;5071860;28;20187;-71
2021/11/22 04:00:59;;;;;;;11.37;2.43;;;23.90;99.90;;;;;;5066234;28;20199;-72
2021/11/22 04:03:27;;;;;;;11.37;2.30;;;23.40;99.90;;;;;;5072137;28;20274;-72
2021/11/22 04:05:54;;;;;;;11.80;2.33;;;23.10;99.90;;;;;;5071489;28;20336;-68
2021/11/22 04:08:21;;;;;;;10.57;2.13;;;23.10;99.90;;;;;;5071087;28;20279;-67
2021/11/22 04:10:49;;;;;;;12.40;2.10;;;22.70;99.90;;;;;;5071786;28;20175;-69
2021/11/22 04:13:17;;;;;;;8.37;1.90;;;22.80;99.90;;;;;;5070807;28;20246;-67
2021/11/22 04:15:44;;;;;;;19.43;2.43;;;23.20;99.90;;;;;;5071650;28;20447;-69
2021/11/22 04:18:13;;;;;;;15.57;2.67;;;23.50;99.90;;;;;;5072171;28;20171;-68
2021/11/22 04:20:41;;;;;;;13.77;2.17;;;24.20;99.90;;;;;;5073491;28;20180;-67
2021/11/22 04:23:10;;;;;;;12.33;2.20;;;24.40;99.90;;;;;;5072354;28;20192;-72
2021/11/22 04:25:38;;;;;;;16.90;2.30;;;23.70;99.90;;;;;;5075958;28;20743;-70
2021/11/22 04:28:07;;;;;;;14.50;2.10;;;23.40;99.90;;;;;;5075755;28;20504;-73
2021/11/22 04:30:34;;;;;;;17.13;2.80;;;23.20;99.90;;;;;;5072377;28;20183;-70
2021/11/22 04:33:02;;;;;;;18.47;2.97;;;23.50;99.90;;;;;;5073118;28;20182;-69
2021/11/22 04:35:30;;;;;;;10.83;2.10;;;23.80;99.90;;;;;;5073159;28;20199;-68
2021/11/22 04:37:58;;;;;;;17.47;3.40;;;23.80;99.90;;;;;;5072269;28;20203;-71
2021/11/22 04:40:26;;;;;;;12.67;2.10;;;23.70;99.90;;;;;;5071762;28;20188;-68
2021/11/22 04:42:53;;;;;;;13.33;2.73;;;23.60;99.90;;;;;;5071553;28;20198;-71
2021/11/22 04:45:23;;;;;;;10.27;2.07;;;23.00;99.90;;;;;;5071604;28;20183;-68
2021/11/22 04:47:51;;;;;;;11.80;2.03;;;22.80;99.90;;;;;;5070214;28;20187;-71
2021/11/22 04:50:20;;;;;;;18.30;3.33;;;22.20;99.90;;;;;;5070919;28;20176;-70
2021/11/22 04:52:48;;;;;;;17.10;2.83;;;21.60;99.90;;;;;;5067595;28;20210;-69
2021/11/22 04:55:17;;;;;;;15.73;2.43;;;21.40;99.90;;;;;;5069580;28;20221;-69
2021/11/22 04:57:46;;;;;;;22.23;3.17;;;21.30;99.90;;;;;;5072193;28;20605;-70
2021/11/22 05:00:16;;;;;;;17.60;2.50;;;21.00;99.90;;;;;;5070771;28;20659;-73
2021/11/22 05:02:45;;;;;;;16.90;2.40;;;20.90;99.90;;;;;;5072496;28;20267;-69
2021/11/22 05:05:14;;;;;;;21.50;2.97;;;20.80;99.90;;;;;;5072761;28;20243;-68
2021/11/22 05:07:41;;;;;;;16.63;2.53;;;20.70;99.90;;;;;;5072909;28;20240;-69
2021/11/22 05:10:10;;;;;;;15.00;3.00;;;20.50;99.90;;;;;;5071958;28;20187;-70
2021/11/22 05:12:38;;;;;;;16.87;2.80;;;20.40;99.90;;;;;;5072140;28;20209;-72
2021/11/22 05:15:06;;;;;;;16.33;2.93;;;20.40;99.90;;;;;;5071307;28;20226;-69
2021/11/22 05:17:34;;;;;;;29.17;4.03;;;20.50;99.90;;;;;;5071185;28;20175;-68
2021/11/22 05:20:03;;;;;;;19.07;2.97;;;20.30;99.90;;;;;;5065817;28;20184;-70
2021/11/22 05:22:31;;;;;;;11.03;3.13;;;20.20;99.90;;;;;;5071219;28;20172;-68
2021/11/22 05:24:58;;;;;;;17.80;3.03;;;20.20;99.90;;;;;;5070666;28;20223;-71
2021/11/22 05:27:30;;;;;;;15.40;2.23;;;20.10;99.90;;;;;;5068644;28;20536;-66
2021/11/22 05:29:57;;;;;;;12.97;2.47;;;19.90;99.90;;;;;;5071153;28;20188;-70
2021/11/22 05:32:25;;;;;;;9.13;2.00;;;19.80;99.90;;;;;;5070699;28;20183;-71
2021/11/22 05:34:54;;;;;;;14.33;2.10;;;19.70;99.90;;;;;;5071116;28;20179;-68
2021/11/22 05:37:22;;;;;;;13.70;2.20;;;19.50;99.90;;;;;;5070283;28;20221;-69
2021/11/22 05:39:50;;;;;;;20.80;3.47;;;19.40;99.90;;;;;;5071581;28;20180;-69
2021/11/22 05:42:18;;;;;;;22.57;3.03;;;19.40;99.90;;;;;;5071275;28;20270;-69
2021/11/22 05:44:46;;;;;;;14.73;2.37;;;19.40;99.90;;;;;;5070657;28;20292;-70
2021/11/22 05:47:14;;;;;;;20.77;3.20;;;19.50;99.90;;;;;;5066803;28;20190;-70
2021/11/22 05:49:42;;;;;;;29.50;2.80;;;19.50;99.90;;;;;;5071875;28;20656;-68
2021/11/22 05:52:11;;;;;;;15.33;2.80;;;19.60;99.90;;;;;;5070013;28;20329;-70
2021/11/22 05:54:49;;;;;;;19.93;2.60;;;19.60;99.90;;;;;;5068010;28;20211;-70
2021/11/22 05:57:18;;;;;;;16.77;2.83;;;19.50;99.90;;;;;;5070812;28;20298;-72
2021/11/22 05:59:46;;;;;;;17.63;2.83;;;19.60;99.90;;;;;;5070864;28;20175;-70
2021/11/22 06:02:13;;;;;;;18.77;2.70;;;19.60;99.90;;;;;;5069695;28;20224;-67
2021/11/22 06:04:41;;;;;;;14.37;2.67;;;19.60;99.90;;;;;;5071468;28;20171;-68
2021/11/22 06:07:09;;;;;;;18.33;2.60;;;19.60;99.90;;;;;;5070510;28;20189;-70
2021/11/22 06:09:37;;;;;;;16.13;3.23;;;19.60;99.90;;;;;;5071150;28;20175;-70
2021/11/22 06:12:05;;;;;;;20.87;3.47;;;19.50;99.90;;;;;;5068382;28;20207;-71
2021/11/22 06:14:32;;;;;;;18.77;3.00;;;19.50;99.90;;;;;;5070061;28;20219;-70
2021/11/22 06:17:00;;;;;;;16.43;2.77;;;19.40;99.90;;;;;;5069805;28;20327;-70
2021/11/22 06:19:28;;;;;;;17.77;2.90;;;19.40;99.90;;;;;;5070618;28;20207;-71
2021/11/22 06:21:55;;;;;;;12.93;2.63;;;19.30;99.90;;;;;;5070400;28;20850;-71
2021/11/22 06:24:24;;;;;;;24.00;3.40;;;19.10;99.90;;;;;;5068777;28;20194;-70
2021/11/22 06:26:54;;;;;;;19.50;3.30;;;18.90;99.90;;;;;;5070759;28;20222;-71
2021/11/22 06:29:22;;;;;;;24.23;2.80;;;18.90;99.90;;;;;;5071627;28;20551;-72
2021/11/22 06:31:51;;;;;;;18.60;3.17;;;18.90;99.90;;;;;;5070289;28;20180;-70
2021/11/22 06:34:19;;;;;;;21.57;3.33;;;19.00;99.90;;;;;;5070390;28;20232;-69
2021/11/22 06:36:46;;;;;;;18.40;3.57;;;19.00;99.90;;;;;;5071139;28;20215;-69
2021/11/22 06:39:13;;;;;;;18.17;2.83;;;19.00;99.90;;;;;;5069938;28;20666;-71
2021/11/22 06:41:41;;;;;;;18.10;2.93;;;19.10;99.90;;;;;;5070631;28;20287;-70
2021/11/22 06:44:08;;;;;;;16.53;2.60;;;19.10;99.90;;;;;;5071227;28;20179;-70
2021/11/22 06:46:36;;;;;;;15.20;2.90;;;19.20;99.90;;;;;;5070896;28;20925;-68
2021/11/22 06:49:03;;;;;;;24.10;4.10;;;19.30;99.90;;;;;;5070352;28;20183;-70
2021/11/22 06:51:31;;;;;;;23.17;3.40;;;19.20;99.90;;;;;;5071668;28;20527;-69
2021/11/22 06:53:58;;;;;;;16.80;2.23;;;19.20;99.90;;;;;;5071014;28;20191;-70
2021/11/22 06:56:26;;;;;;;13.30;2.47;;;19.30;99.90;;;;;;5071107;28;20207;-70
2021/11/22 06:58:53;;;;;;;18.33;2.60;;;19.40;99.90;;;;;;5069700;28;20534;-71
2021/11/22 07:01:20;;;;;;;16.83;2.50;;;19.50;99.90;;;;;;5070289;28;20209;-71
2021/11/22 07:03:48;;;;;;;12.47;1.90;;;19.40;99.90;;;;;;5070754;28;20187;-68
2021/11/22 07:06:15;;;;;;;18.40;2.60;;;19.40;99.90;;;;;;5073251;28;20237;-68
2021/11/22 07:08:43;;;;;;;11.10;2.40;;;19.40;99.90;;;;;;5072622;28;20274;-71
2021/11/22 07:11:10;;;;;;;14.73;2.90;;;19.40;99.90;;;;;;5074657;28;21473;-70
2021/11/22 07:13:38;;;;;;;15.63;3.57;;;19.40;99.90;;;;;;5074675;28;20566;-69
2021/11/22 07:16:05;;;;;;;17.90;3.47;;;19.40;99.90;;;;;;5074852;28;20738;-71
2021/11/22 07:18:33;;;;;;;15.63;4.73;;;19.40;99.90;;;;;;5071682;28;20179;-69
2021/11/22 07:21:01;;;;;;;15.50;2.57;;;19.40;99.90;;;;;;5074110;28;20704;-71
2021/11/22 07:23:28;;;;;;;18.57;3.27;;;19.50;99.90;;;;;;5074312;28;20707;-72
2021/11/22 07:25:57;;;;;;;19.50;2.97;;;19.50;99.90;;;;;;5073226;28;20174;-70
2021/11/22 07:28:26;;;;;;;18.40;2.50;;;19.60;99.90;;;;;;5074155;28;20693;-69
2021/11/22 07:30:54;;;;;;;20.93;3.13;;;19.70;99.90;;;;;;5074653;28;20708;-71
2021/11/22 07:33:22;;;;;;;14.07;2.73;;;19.70;99.90;;;;;;5074181;28;20179;-71
2021/11/22 07:35:50;;;;;;;13.67;2.63;;;19.80;99.90;;;;;;5073581;28;20659;-70
2021/11/22 07:38:18;;;;;;;12.33;2.60;;;19.70;99.90;;;;;;5073844;28;20188;-67
2021/11/22 07:40:47;;;;;;;24.47;3.13;;;19.70;99.90;;;;;;5074695;28;20205;-68
2021/11/22 07:43:17;;;;;;;17.20;2.83;;;20.00;99.90;;;;;;5073897;28;20180;-72
2021/11/22 07:45:45;;;;;;;14.80;2.30;;;20.00;99.90;;;;;;5073514;28;20668;-71
2021/11/22 07:48:14;;;;;;;18.83;2.73;;;19.90;99.90;;;;;;5065268;28;20188;-69
2021/11/22 07:50:42;;;;;;;16.10;2.97;;;19.80;99.90;;;;;;5073096;28;20179;-69
2021/11/22 07:53:10;;;;;;;20.93;2.80;;;19.80;99.90;;;;;;5074714;28;20195;-71
2021/11/22 07:55:38;;;;;;;17.33;2.97;;;19.70;99.90;;;;;;5073255;28;20219;-71
2021/11/22 07:58:05;;;;;;;19.30;3.53;;;19.60;99.90;;;;;;5073933;28;20270;-69
2021/11/22 08:00:32;;;;;;;15.13;2.40;;;19.60;99.90;;;;;;5074252;28;20641;-70
2021/11/22 08:03:00;;;;;;;18.33;3.63;;;19.60;99.90;;;;;;5073056;28;20183;-68
2021/11/22 08:05:30;;;;;;;19.20;2.87;;;19.50;99.90;;;;;;5071344;28;20275;-72
2021/11/22 08:07:57;;;;;;;15.27;2.93;;;19.50;99.90;;;;;;5070893;28;21166;-69
2021/11/22 08:10:28;;;;;;;14.20;2.73;;;19.40;99.90;;;;;;5072603;28;20199;-69
2021/11/22 08:13:00;;;;;;;18.10;3.23;;;19.40;99.90;;;;;;5067650;28;20258;-70
2021/11/22 08:15:30;;;;;;;11.53;2.67;;;19.20;99.90;;;;;;5071637;28;20710;-69
2021/11/22 08:18:00;;;;;;;15.97;2.70;;;19.10;99.90;;;;;;5071894;28;20190;-71
2021/11/22 08:20:28;;;;;;;19.97;2.93;;;19.00;99.90;;;;;;5072889;28;20661;-69
2021/11/22 08:22:56;;;;;;;29.50;7.77;;;19.00;99.90;;;;;;5070901;28;20638;-70
2021/11/22 08:25:25;;;;;;;23.13;6.73;;;18.90;99.90;;;;;;5072748;28;20180;-68
2021/11/22 08:27:55;;;;;;;15.70;3.60;;;18.90;99.90;;;;;;5073386;28;20187;-70
2021/11/22 08:30:27;;;;;;;12.80;2.27;;;18.90;99.90;;;;;;5071132;28;20649;-69
2021/11/22 08:32:56;;;;;;;17.83;2.60;;;18.90;99.90;;;;;;5073741;28;20270;-73
2021/11/22 08:35:24;;;;;;;16.57;3.37;;;18.80;99.90;;;;;;5069171;28;20179;-69
2021/11/22 08:37:51;;;;;;;18.60;2.90;;;18.80;99.90;;;;;;5070032;28;20285;-69
2021/11/22 08:40:21;;;;;;;20.83;3.13;;;18.70;99.90;;;;;;5070698;28;20191;-71
2021/11/22 08:42:50;;;;;;;22.73;3.87;;;18.70;99.90;;;;;;5072054;28;20202;-71
2021/11/22 08:45:17;;;;;;;20.20;2.73;;;18.70;99.90;;;;;;5072181;28;20179;-68
2021/11/22 08:47:45;;;;;;;26.10;4.30;;;18.60;99.90;;;;;;5074022;28;20167;-70
2021/11/22 08:50:13;;;;;;;16.30;2.87;;;18.70;99.90;;;;;;5072032;28;20176;-71
2021/11/22 08:52:42;;;;;;;30.47;10.20;;;18.60;99.90;;;;;;5074516;28;20183;-70
2021/11/22 08:55:11;;;;;;;22.90;4.20;;;18.60;99.90;;;;;;5071529;28;20183;-70
2021/11/22 08:57:39;;;;;;;17.47;4.13;;;18.50;99.90;;;;;;5072744;28;20190;-71
2021/11/22 09:00:17;;;;;;;20.53;2.90;;;18.50;99.90;;;;;;5070126;28;20236;-70
2021/11/22 09:02:45;;;;;;;23.93;3.57;;;18.60;99.90;;;;;;5072045;28;20194;-70
2021/11/22 09:05:13;;;;;;;22.03;3.73;;;18.50;99.90;;;;;;5073146;28;20311;-70
2021/11/22 09:07:40;;;;;;;29.00;3.37;;;18.50;99.90;;;;;;5072190;28;20197;-70
2021/11/22 09:10:08;;;;;;;18.07;2.67;;;18.50;99.90;;;;;;5072980;28;20210;-69
2021/11/22 09:12:35;;;;;;;23.13;4.03;;;18.50;99.90;;;;;;5063947;28;20734;-68
2021/11/22 09:15:03;;;;;;;19.87;3.23;;;18.50;99.90;;;;;;5071549;28;20305;-69
2021/11/22 09:17:31;;;;;;;29.13;2.90;;;18.50;99.90;;;;;;5071814;28;20218;-70
2021/11/22 09:19:58;;;;;;;21.23;3.30;;;18.40;99.90;;;;;;5071603;28;20191;-72
2021/11/22 09:22:25;;;;;;;23.97;3.53;;;18.50;99.90;;;;;;5072227;28;20649;-72
2021/11/22 09:24:53;;;;;;;18.77;3.63;;;18.50;99.90;;;;;;5072346;28;20597;-69
2021/11/22 09:27:20;;;;;;;15.40;2.90;;;18.50;99.90;;;;;;5071640;28;20236;-72
2021/11/22 09:29:47;;;;;;;21.33;3.93;;;18.50;99.90;;;;;;5071959;28;20186;-69
2021/11/22 09:32:15;;;;;;;21.73;3.63;;;18.50;99.90;;;;;;5068584;28;20590;-70
2021/11/22 09:34:42;;;;;;;19.37;3.97;;;18.40;99.90;;;;;;5072416;28;20240;-72
2021/11/22 09:37:09;;;;;;;21.70;3.60;;;18.50;99.90;;;;;;5070903;28;20230;-69
2021/11/22 09:39:36;;;;;;;18.53;3.20;;;18.40;99.90;;;;;;5072137;28;20176;-71
2021/11/22 09:42:05;;;;;;;16.43;2.50;;;18.50;99.90;;;;;;5071258;28;20190;-69
2021/11/22 09:44:32;;;;;;;15.57;3.00;;;18.50;99.90;;;;;;5071987;28;20191;-70
2021/11/22 09:47:00;;;;;;;27.43;3.13;;;18.50;99.90;;;;;;5071973;28;20184;-69
2021/11/22 09:49:28;;;;;;;20.87;3.03;;;18.50;99.90;;;;;;5072382;28;20191;-69
2021/11/22 09:51:56;;;;;;;26.80;3.87;;;18.50;99.90;;;;;;5071486;28;20215;-71
2021/11/22 09:54:23;;;;;;;24.27;3.70;;;18.50;99.90;;;;;;5071662;28;20190;-71
2021/11/22 09:56:52;;;;;;;17.97;2.80;;;18.50;99.90;;;;;;5071514;28;20323;-71
2021/11/22 09:59:23;;;;;;;16.63;3.20;;;18.50;99.90;;;;;;5071940;28;20209;-71
2021/11/22 10:01:57;;;;;;;17.67;3.10;;;18.50;99.90;;;;;;5070484;28;20187;-70
2021/11/22 10:04:32;;;;;;;26.83;3.40;;;18.50;99.90;;;;;;5070443;28;20236;-71
2021/11/22 10:07:05;;;;;;;27.47;4.53;;;18.50;99.90;;;;;;5070395;28;20242;-71
2021/11/22 10:09:33;;;;;;;26.77;3.20;;;18.50;99.90;;;;;;5071525;28;20183;-69
2021/11/22 10:12:01;;;;;;;18.27;3.57;;;18.50;99.90;;;;;;5068045;28;20271;-71
2021/11/22 10:14:34;;;;;;;20.30;3.30;;;18.50;99.90;;;;;;5069240;28;20234;-68
2021/11/22 10:17:01;;;;;;;21.13;3.10;;;18.50;99.90;;;;;;5071283;28;20271;-70
2021/11/22 10:19:29;;;;;;;20.70;3.03;;;18.50;99.90;;;;;;5071809;28;20187;-70
2021/11/22 10:21:58;;;;;;;21.53;3.83;;;18.50;99.90;;;;;;5071073;28;20207;-71
2021/11/22 10:24:26;;;;;;;21.60;5.10;;;18.50;99.90;;;;;;5071325;28;20183;-71
2021/11/22 10:26:53;;;;;;;23.30;4.50;;;18.40;99.90;;;;;;5071151;28;20191;-72
2021/11/22 10:29:31;;;;;;;20.83;2.70;;;18.40;99.90;;;;;;5070225;28;20187;-70
2021/11/22 10:32:03;;;;;;;20.50;2.83;;;18.40;99.90;;;;;;5070039;28;20183;-73
2021/11/22 10:34:39;;;;;;;24.40;5.23;;;18.40;99.90;;;;;;5067273;28;20197;-70
2021/11/22 10:37:08;;;;;;;19.50;3.00;;;18.40;99.90;;;;;;5070866;28;20244;-72
2021/11/22 10:39:36;;;;;;;18.97;2.77;;;18.40;99.90;;;;;;5068266;28;20197;-69
2021/11/22 10:42:23;;;;;;;16.33;3.07;;;18.40;99.90;;;;;;5068869;28;20186;-70
2021/11/22 10:44:56;;;;;;;21.40;2.83;;;18.40;99.90;;;;;;5068330;28;20180;-69
2021/11/22 10:47:24;;;;;;;30.47;8.97;;;18.50;99.90;;;;;;5066966;28;20202;-70
2021/11/22 10:49:54;;;;;;;32.73;7.37;;;18.40;99.90;;;;;;5071476;28;20196;-71
2021/11/22 10:52:35;;;;;;;20.47;3.30;;;18.50;99.90;;;;;;5070735;28;20663;-73
2021/11/22 10:55:20;;;;;;;21.73;3.20;;;18.40;99.90;;;;;;5069803;28;20194;-72
2021/11/22 10:57:50;;;;;;;26.15;3.60;;;18.40;99.90;;;;;;5066180;28;20427;-72
2021/11/22 11:00:20;;;;;;;24.83;3.67;;;18.40;99.90;;;;;;5070626;28;20193;-69
2021/11/22 11:02:49;;;;;;;19.80;2.97;;;18.40;99.90;;;;;;5070998;28;20548;-72
2021/11/22 11:05:29;;;;;;;13.77;3.03;;;18.30;99.90;;;;;;5071325;28;20724;-73
2021/11/22 11:08:05;;;;;;;25.23;3.43;;;18.30;99.90;;;;;;5070393;28;20183;-70
2021/11/22 11:10:34;;;;;;;18.77;3.53;;;18.30;99.90;;;;;;5066825;28;20178;-72
2021/11/22 11:13:03;;;;;;;27.43;3.27;;;18.30;99.90;;;;;;5064601;28;20237;-72
2021/11/22 11:15:31;;;;;;;19.50;3.13;;;18.30;99.90;;;;;;5066402;28;20190;-70
2021/11/22 11:18:00;;;;;;;26.13;4.00;;;18.30;99.90;;;;;;5064967;28;20300;-70
2021/11/22 11:20:31;;;;;;;16.27;2.93;;;18.40;99.90;;;;;;5069177;28;20208;-71
2021/11/22 11:22:58;;;;;;;21.30;3.27;;;18.30;99.90;;;;;;5069256;28;20190;-71
2021/11/22 11:25:28;;;;;;;18.80;3.20;;;18.30;99.90;;;;;;5071488;28;21023;-70
2021/11/22 11:27:55;;;;;;;29.33;3.60;;;18.20;99.90;;;;;;5070266;28;20198;-73
2021/11/22 11:30:23;;;;;;;22.00;3.70;;;18.20;99.90;;;;;;5071159;28;20210;-73
2021/11/22 11:32:53;;;;;;;17.33;2.93;;;18.20;99.90;;;;;;5070752;28;20186;-71
2021/11/22 11:35:21;;;;;;;19.00;3.20;;;18.20;99.90;;;;;;5064023;28;20186;-70
2021/11/22 11:38:19;;;;;;;14.93;2.67;;;18.20;99.90;;;;;;5070480;28;20194;-71
2021/11/22 11:40:57;;;;;;;21.73;3.97;;;18.30;99.90;;;;;;5067075;28;20221;-71
2021/11/22 11:43:49;;;;;;;19.47;3.10;;;18.30;99.90;;;;;;5070614;28;20198;-70
2021/11/22 11:46:48;;;;;;;19.67;3.87;;;18.30;99.90;;;;;;5070970;28;20185;-70
2021/11/22 11:49:15;;;;;;;17.83;2.90;;;18.30;99.90;;;;;;5070539;28;20186;-70
2021/11/22 11:51:46;;;;;;;29.80;5.00;;;18.40;99.90;;;;;;5073582;28;20650;-69
2021/11/22 11:54:17;;;;;;;16.33;3.13;;;18.40;99.90;;;;;;5074054;28;20182;-70
2021/11/22 11:56:47;;;;;;;17.37;2.30;;;18.30;99.90;;;;;;5074325;28;20226;-70
2021/11/22 11:59:23;;;;;;;22.67;4.60;;;18.30;99.90;;;;;;5073742;28;20191;-69
2021/11/22 12:02:00;;;;;;;25.37;3.03;;;18.40;99.90;;;;;;5074181;28;20212;-69
2021/11/22 12:04:30;;;;;;;19.43;2.97;;;18.30;99.90;;;;;;5074285;28;20182;-70
2021/11/22 12:07:01;;;;;;;18.17;3.40;;;18.40;99.90;;;;;;5072011;28;20171;-70
2021/11/22 12:09:33;;;;;;;15.23;2.90;;;18.30;99.90;;;;;;5074256;28;20295;-71
2021/11/22 12:12:09;;;;;;;21.40;3.60;;;18.40;99.90;;;;;;5070319;28;20172;-70
2021/11/22 12:15:13;;;;;;;21.97;3.60;;;18.40;99.90;;;;;;5069973;28;20748;-69
2021/11/22 12:17:40;;;;;;;17.57;3.20;;;18.40;99.90;;;;;;5071403;28;20195;-70
2021/11/22 12:20:18;;;;;;;15.83;3.40;;;18.30;99.90;;;;;;5074272;28;20547;-69
2021/11/22 12:23:11;;;;;;;13.73;2.57;;;18.40;99.90;;;;;;5072107;28;20651;-69
2021/11/22 12:25:38;;;;;;;20.73;3.50;;;18.30;99.90;;;;;;5073501;28;20267;-70
2021/11/22 12:28:11;;;;;;;17.10;3.50;;;18.40;99.90;;;;;;5072237;28;20190;-71
2021/11/22 12:30:43;;;;;;;22.13;3.20;;;18.40;99.90;;;;;;5072184;28;20300;-71
2021/11/22 12:33:25;;;;;;;25.87;6.43;;;18.40;99.90;;;;;;5072777;28;20186;-70
2021/11/22 12:36:03;;;;;;;20.07;6.17;;;18.40;99.90;;;;;;5069937;28;20203;-70
2021/11/22 12:38:34;;;;;;;23.97;5.07;;;18.40;99.90;;;;;;5072524;28;20190;-70
2021/11/22 12:41:07;;;;;;;20.13;3.17;;;18.40;99.90;;;;;;5072865;28;20241;-71
2021/11/22 12:43:47;;;;;;;19.13;3.43;;;18.40;99.90;;;;;;5073479;28;20183;-71
2021/11/22 12:46:22;;;;;;;16.17;2.40;;;18.40;99.90;;;;;;5072273;28;20178;-70
2021/11/22 12:48:53;;;;;;;15.07;2.87;;;18.40;99.90;;;;;;5071575;28;20644;-70